East Islip, New York
Current Conditions -  °F | °C
As of 6:56 AM on Thursday 23 Oct 2014 (Local Time) from KISP Reporting Station
Light Rain Light Rain  
Wind Chill: 11°   Ceiling: 2200
Heat Index: 11°   Visibility: 5mi
Dew Point:   Wind: 17mph
Humidity: 86%   Direction: 360°N
Pressure: 29.62"   Gusts: 25mph
Location:  40.73°N, 73.19°W
Report Text: KISP 231056Z 36015G22KT 5SM -RA BR FEW015 BKN022 OVC033 11/08 A2962 RMK AO2 PK WND 36027/1034 SLP028 P0010 T01060083
Loading
Personal Weather Stations






























Interactive Weather Map
Tropical Storm Tracking
New forecast layout! Learn more

10-Day Weather Forecast

Advertisements
Track Severe Weather on mobile